Toast, North Carolina
Current Conditions -  °F | °C
As of 7:55 PM on Saturday 25 Oct 2014 (Local Time) from KMWK Reporting Station
Scattered Clouds Scattered Clouds  
Wind Chill: 65°   Ceiling: Unl
Heat Index: 65°   Visibility: 10mi
Dew Point: 48°   Wind: 0mph
Humidity: 53%   Direction: NA
Pressure: 29.96"   Gusts: NA
Location:  36.5°N, 80.63°W
Report Text: KMWK 252355Z AUTO 00000KT 10SM SCT047 19/09 A2996 RMK AO2 T01860087 10236 20186
Loading
Personal Weather Stations






























Interactive Weather Map
Tropical Storm Tracking
New forecast layout! Learn more

10-Day Weather Forecast

Advertisements
Track Severe Weather on mobile